Malmstrom Air Force Base, MT

1:57 AM MST on November 27, 2014 (GMT -0700)
Malmstrom AFB | Change Station
CLOSE
Current Station
Airport
Location: Malmstrom AFB,
Elevation: 3527 ft
Nearby Weather Stations
Active Advisory: Freezing Fog Advisory Active Notice: Record Report, Local Storm Report

Elev 3527 ft 47.50 °N, 111.19 °W | Updated 15 minutes ago

Fog
Fog
--
Feels Like --
N
5
Wind Variable Wind from SSE

Today
High -- | Low -- °F
--% Chance of Precip.
Yesterday
High -- | Low -- °F
Precip. -- in
7:46 AM 4:37 PM
Waxing Crescent, 27% visible
Pressure 29.95 in
Visibility 6.0 miles
Clouds Scattered Clouds 300 ft
Mostly Cloudy 14000 ft
Dew Point Not available.
Humidity Not available.
Rainfall 0.00 in
Snow Depth Not available.
UV 0 out of 12
Pollen .10 out of 12
Air Quality Not available.
Flu Activity Not available.
SPECI KGFA 270842Z AUTO 15004KT 6SM BR SCT003 BKN140 M04/M03 A2995 RMK AO2

More Conditions Fewer Conditions

Pressure 29.95 in
Visibility 6.0 miles
Clouds Scattered Clouds 300 ft
Mostly Cloudy 14000 ft
Dew Point Not available.
Humidity Not available.
Rainfall 0.00 in
Snow Depth Not available.
UV 0 out of 12
Pollen .10 out of 12
Air Quality Not available.
Flu Activity Not available.
SPECI KGFA 270842Z AUTO 15004KT 6SM BR SCT003 BKN140 M04/M03 A2995 RMK AO2

More Conditions Fewer Conditions

10-Day Weather Forecast

Almanac

Astronomy

Nov. 27, 2014 Rise Set
Actual Time
Civil Twilight
Nautical Twilight
Astronomical Twilight
Moon
Length of Visible Light
Length of Day
Tomorrow will be .
, % of the Moon is Illuminated

Today's Extremes

State Highs State Lows

Community

WunderPhotos

Upload Photos

1,773,965 photos uploaded!

WunderBlogs® & News

Nearby

Air Quality

  Air Quality AQ Index Pollutant
Not available.

Snow Depth

Station Depth Elevation

Earthquake Activity

City Distance Mag. Time & Date
Minimum magnitude displayed is 2.5.

Coastal Water Temperatures

Place Temperature

Nearby Weather Stations